createdAt,value
2019-01-25T00:02:44.406Z,15.43
2019-01-25T00:05:29.419Z,14.70
2019-01-25T00:08:14.252Z,15.90
2019-01-25T00:10:59.247Z,16.33
2019-01-25T00:13:43.780Z,15.27
2019-01-25T00:16:28.616Z,15.70
2019-01-25T00:19:13.191Z,15.90
2019-01-25T00:21:57.927Z,16.60
2019-01-25T00:24:42.691Z,15.53
2019-01-25T00:27:27.190Z,15.67
2019-01-25T00:30:11.558Z,15.70
2019-01-25T00:33:05.197Z,15.80
2019-01-25T00:35:49.791Z,15.23
2019-01-25T00:38:34.779Z,14.03
2019-01-25T00:41:19.427Z,16.23
2019-01-25T00:44:04.022Z,15.63
2019-01-25T00:46:48.707Z,16.10
2019-01-25T00:49:33.359Z,15.43
2019-01-25T00:52:27.871Z,16.20
2019-01-25T00:55:12.479Z,15.47
2019-01-25T00:57:56.802Z,17.07
2019-01-25T01:00:50.139Z,16.93
2019-01-25T01:03:35.044Z,17.63
2019-01-25T01:06:19.687Z,16.90
2019-01-25T01:09:04.747Z,18.57
2019-01-25T01:11:49.507Z,18.33
2019-01-25T01:14:34.475Z,18.20
2019-01-25T01:17:28.322Z,25.27
2019-01-25T01:20:12.875Z,20.83
2019-01-25T01:22:57.319Z,20.10
2019-01-25T01:25:42.144Z,19.97
2019-01-25T01:28:26.847Z,19.93
2019-01-25T01:31:09.979Z,19.87
2019-01-25T01:34:01.916Z,20.23
2019-01-25T01:37:03.975Z,19.80
2019-01-25T01:39:48.724Z,20.43
2019-01-25T01:42:33.171Z,20.63
2019-01-25T01:45:17.666Z,20.90
2019-01-25T01:48:11.459Z,20.43
2019-01-25T01:51:04.970Z,21.80
2019-01-25T01:53:49.678Z,22.17
2019-01-25T01:56:34.268Z,21.47
2019-01-25T01:59:18.951Z,22.40
2019-01-25T02:02:03.407Z,21.53
2019-01-25T02:04:56.664Z,20.83
2019-01-25T02:07:41.139Z,21.73
2019-01-25T02:10:29.503Z,22.33
2019-01-25T02:13:11.994Z,21.33
2019-01-25T02:16:05.194Z,21.93
2019-01-25T02:18:51.214Z,20.83
2019-01-25T02:21:35.882Z,21.53
2019-01-25T02:24:20.463Z,23.20
2019-01-25T02:27:13.378Z,21.30
2019-01-25T02:29:57.995Z,22.43
2019-01-25T02:32:42.614Z,21.50
2019-01-25T02:35:35.752Z,21.97
2019-01-25T02:38:20.163Z,23.17
2019-01-25T02:41:04.535Z,22.73
2019-01-25T02:43:58.195Z,22.83
2019-01-25T02:46:43.307Z,22.80
2019-01-25T02:49:36.651Z,22.93
2019-01-25T02:52:21.771Z,21.90
2019-01-25T02:55:06.041Z,21.37
2019-01-25T02:57:50.642Z,19.57
2019-01-25T03:00:35.286Z,21.10
2019-01-25T03:03:28.427Z,18.77
2019-01-25T03:06:13.137Z,20.07
2019-01-25T03:08:57.451Z,19.57
2019-01-25T03:11:41.866Z,21.57
2019-01-25T03:14:35.547Z,20.40
2019-01-25T03:17:20.204Z,20.07
2019-01-25T03:20:04.693Z,21.63
2019-01-25T03:22:49.573Z,22.37
2019-01-25T03:25:34.738Z,20.07
2019-01-25T03:28:19.363Z,18.03
2019-01-25T03:31:03.832Z,18.63
2019-01-25T03:33:48.485Z,19.17
2019-01-25T03:36:33.381Z,17.27
2019-01-25T03:39:17.918Z,17.53
2019-01-25T03:42:02.671Z,19.43
2019-01-25T03:44:55.654Z,20.07
2019-01-25T03:47:40.682Z,19.83
2019-01-25T03:50:25.787Z,19.90
2019-01-25T03:53:10.534Z,20.97
2019-01-25T03:55:54.745Z,22.43
2019-01-25T03:58:39.355Z,21.07
2019-01-25T04:01:24.311Z,21.80
2019-01-25T04:04:08.594Z,21.87
2019-01-25T04:07:01.679Z,22.63
2019-01-25T04:09:46.216Z,21.17
2019-01-25T04:12:31.012Z,22.53
2019-01-25T04:15:16.128Z,28.83
2019-01-25T04:18:00.890Z,28.20
2019-01-25T04:20:55.005Z,23.83
2019-01-25T04:23:39.565Z,23.53
2019-01-25T04:26:24.202Z,22.83
2019-01-25T04:29:08.963Z,25.23
2019-01-25T04:31:53.596Z,22.17
2019-01-25T04:34:47.147Z,24.07
2019-01-25T04:37:31.967Z,24.00
2019-01-25T04:40:18.420Z,23.47
2019-01-25T04:43:03.142Z,23.50
2019-01-25T04:45:47.884Z,23.70
2019-01-25T04:48:32.931Z,23.60
2019-01-25T04:51:26.571Z,22.90
2019-01-25T04:54:12.239Z,23.27
2019-01-25T04:57:05.399Z,23.20
2019-01-25T04:59:50.492Z,23.83
2019-01-25T05:02:35.054Z,24.03
2019-01-25T05:05:31.495Z,24.30
2019-01-25T05:08:24.737Z,23.10
2019-01-25T05:11:19.799Z,23.30
2019-01-25T05:14:16.511Z,21.63
2019-01-25T05:17:01.159Z,22.83
2019-01-25T05:19:45.811Z,21.33
2019-01-25T05:22:30.460Z,21.07
2019-01-25T05:25:23.615Z,21.93
2019-01-25T05:28:09.767Z,21.50
2019-01-25T05:30:54.761Z,21.03
2019-01-25T05:33:39.581Z,22.30
2019-01-25T05:36:24.449Z,22.83
2019-01-25T05:39:08.632Z,21.83
2019-01-25T05:42:01.920Z,22.00
2019-01-25T05:44:56.547Z,22.40
2019-01-25T05:47:41.248Z,22.37
2019-01-25T05:50:26.103Z,22.43
2019-01-25T05:53:10.623Z,20.97
2019-01-25T05:55:54.742Z,21.37
2019-01-25T05:58:39.977Z,22.10
2019-01-25T06:01:26.365Z,22.97
2019-01-25T06:04:11.074Z,23.50
2019-01-25T06:06:55.589Z,22.30
2019-01-25T06:09:40.353Z,22.10
2019-01-25T06:12:33.567Z,23.13
2019-01-25T06:15:18.295Z,21.60
2019-01-25T06:18:03.219Z,23.70
2019-01-25T06:20:49.638Z,21.97
2019-01-25T06:23:34.127Z,22.20
2019-01-25T06:26:28.818Z,23.90
2019-01-25T06:29:23.695Z,24.83
2019-01-25T06:32:09.351Z,22.57
2019-01-25T06:34:54.031Z,22.63
2019-01-25T06:37:38.835Z,23.90
2019-01-25T06:40:23.243Z,27.67
2019-01-25T06:43:16.731Z,24.50
2019-01-25T06:46:01.175Z,23.33
2019-01-25T06:48:45.774Z,22.67
2019-01-25T06:51:40.390Z,22.70
2019-01-25T06:54:25.147Z,22.90
2019-01-25T07:03:44.721Z,22.33
2019-01-25T07:06:28.959Z,22.47
2019-01-25T07:09:22.577Z,24.73
2019-01-25T07:12:07.139Z,21.77
2019-01-25T07:14:51.778Z,22.63
2019-01-25T07:17:36.542Z,22.17
2019-01-25T07:20:21.244Z,23.80
2019-01-25T07:23:06.743Z,24.50
2019-01-25T07:25:51.399Z,22.73
2019-01-25T07:28:36.223Z,21.27
2019-01-25T07:31:20.936Z,22.73
2019-01-25T07:34:05.284Z,21.33
2019-01-25T07:36:51.994Z,22.27
2019-01-25T07:39:36.424Z,19.87
2019-01-25T07:42:21.171Z,22.03
2019-01-25T07:45:05.976Z,20.97
2019-01-25T07:47:50.724Z,22.57
2019-01-25T07:50:35.127Z,21.40
2019-01-25T07:53:28.474Z,22.63
2019-01-25T07:56:13.465Z,22.20
2019-01-25T07:58:57.923Z,20.53
2019-01-25T08:01:42.917Z,25.30
2019-01-25T08:04:27.479Z,19.27
2019-01-25T08:07:12.116Z,20.70
2019-01-25T08:09:56.929Z,19.60
2019-01-25T08:12:41.084Z,20.13
2019-01-25T08:15:34.739Z,18.97
2019-01-25T08:18:19.288Z,19.87
2019-01-25T08:21:04.637Z,18.53
2019-01-25T08:23:49.203Z,20.37
2019-01-25T08:26:34.029Z,18.87
2019-01-25T08:29:18.587Z,18.50
2019-01-25T08:32:03.190Z,18.60
2019-01-25T08:34:48.140Z,19.73
2019-01-25T08:37:32.944Z,19.97
2019-01-25T08:40:18.098Z,19.37
2019-01-25T08:43:02.106Z,20.77
2019-01-25T08:45:54.344Z,20.13
2019-01-25T08:49:07.349Z,19.03
2019-01-25T08:51:52.028Z,19.17
2019-01-25T08:54:36.573Z,18.90
2019-01-25T08:57:21.495Z,18.53
2019-01-25T09:00:05.775Z,18.40
2019-01-25T09:03:00.499Z,18.50
2019-01-25T09:05:45.031Z,19.03
2019-01-25T09:08:29.943Z,18.23
2019-01-25T09:11:14.371Z,19.27
2019-01-25T09:14:08.039Z,19.07
2019-01-25T09:17:01.735Z,19.80
2019-01-25T09:19:46.332Z,18.60
2019-01-25T09:22:31.127Z,19.63
2019-01-25T09:25:15.876Z,21.57
2019-01-25T09:28:00.663Z,19.50
2019-01-25T09:30:45.760Z,19.90
2019-01-25T09:33:30.234Z,19.27
2019-01-25T09:36:15.003Z,18.93
2019-01-25T09:39:09.714Z,20.23
2019-01-25T09:41:54.307Z,19.03
2019-01-25T09:44:39.388Z,19.90
2019-01-25T09:47:24.303Z,18.90
2019-01-25T09:50:08.935Z,19.40
2019-01-25T09:52:53.376Z,19.37
2019-01-25T09:55:37.975Z,20.27
2019-01-25T09:58:22.979Z,19.27
2019-01-25T10:01:07.071Z,19.07
2019-01-25T10:04:00.839Z,17.60
2019-01-25T10:06:54.834Z,15.47
2019-01-25T10:09:39.982Z,16.47
2019-01-25T10:12:34.974Z,14.10
2019-01-25T10:15:19.773Z,14.03
2019-01-25T10:18:04.664Z,15.47
2019-01-25T10:20:49.087Z,14.90
2019-01-25T10:23:33.358Z,12.70
2019-01-25T10:26:28.754Z,12.97
2019-01-25T10:29:13.547Z,15.03
2019-01-25T10:31:58.118Z,14.43
2019-01-25T10:34:43.127Z,13.67
2019-01-25T10:37:27.847Z,14.47
2019-01-25T10:40:12.607Z,13.67
2019-01-25T10:42:56.791Z,12.70
2019-01-25T10:45:50.360Z,12.23
2019-01-25T10:48:35.303Z,13.27
2019-01-25T10:51:20.407Z,13.13
2019-01-25T10:54:13.875Z,12.83
2019-01-25T10:56:58.344Z,13.30
2019-01-25T10:59:43.410Z,13.30
2019-01-25T11:02:27.910Z,12.43
2019-01-25T11:05:12.535Z,13.27
2019-01-25T11:07:57.403Z,14.57
2019-01-25T11:10:41.535Z,15.13
2019-01-25T11:13:35.299Z,14.33
2019-01-25T11:16:20.399Z,15.10
2019-01-25T11:19:13.999Z,13.93
2019-01-25T11:21:58.519Z,13.50
2019-01-25T11:24:43.573Z,13.50
2019-01-25T11:27:29.374Z,13.77
2019-01-25T11:30:14.402Z,12.77
2019-01-25T11:32:59.200Z,12.67
2019-01-25T11:35:44.133Z,14.80
2019-01-25T11:38:29.076Z,12.60
2019-01-25T11:41:13.939Z,14.47
2019-01-25T11:43:58.403Z,13.00
2019-01-25T11:46:43.011Z,12.83
2019-01-25T11:49:27.474Z,12.97
2019-01-25T11:52:25.013Z,12.90
2019-01-25T11:55:07.263Z,11.77
2019-01-25T11:57:51.738Z,11.30
2019-01-25T12:00:37.659Z,13.43
2019-01-25T12:03:31.687Z,11.87
2019-01-25T12:06:25.354Z,11.70
2019-01-25T12:09:10.252Z,12.13
2019-01-25T12:11:54.530Z,11.87
2019-01-25T12:14:39.350Z,11.87
2019-01-25T12:17:23.894Z,12.13
2019-01-25T12:20:07.995Z,11.80
2019-01-25T12:22:52.839Z,12.13
2019-01-25T12:25:37.603Z,11.97
2019-01-25T12:28:22.422Z,11.90
2019-01-25T12:31:06.900Z,11.20
2019-01-25T12:33:51.830Z,11.37
2019-01-25T12:36:36.259Z,13.00
2019-01-25T12:39:21.455Z,12.30
2019-01-25T12:42:06.709Z,12.63
2019-01-25T12:45:00.339Z,12.70
2019-01-25T12:47:44.924Z,14.00
2019-01-25T12:50:39.302Z,12.80
2019-01-25T12:53:24.147Z,12.90
2019-01-25T12:56:08.959Z,14.50
2019-01-25T12:58:53.587Z,15.67
2019-01-25T13:01:39.903Z,15.20
2019-01-25T13:04:24.707Z,16.70
2019-01-25T13:07:09.279Z,15.20
2019-01-25T13:09:54.479Z,16.47
2019-01-25T13:12:39.387Z,19.47
2019-01-25T13:15:24.574Z,18.67
2019-01-25T13:18:18.075Z,19.10
2019-01-25T13:21:02.823Z,18.30
2019-01-25T13:23:47.442Z,16.57
2019-01-25T13:26:32.095Z,17.20
2019-01-25T13:29:16.839Z,17.93
2019-01-25T13:32:00.887Z,17.13
2019-01-25T13:34:45.973Z,17.23
2019-01-25T13:37:39.167Z,17.67
2019-01-25T13:40:23.840Z,17.30
2019-01-25T13:43:09.111Z,16.60
2019-01-25T13:45:54.028Z,16.90
2019-01-25T13:48:38.595Z,17.80
2019-01-25T13:51:23.291Z,16.70
2019-01-25T13:54:08.007Z,15.90
2019-01-25T13:57:02.178Z,18.33
2019-01-25T13:59:57.292Z,25.27
2019-01-25T14:02:50.579Z,22.30
2019-01-25T14:05:35.563Z,18.67
2019-01-25T14:08:20.256Z,17.67
2019-01-25T14:11:04.891Z,16.40
2019-01-25T14:13:50.068Z,15.63
2019-01-25T14:16:34.587Z,15.83
2019-01-25T14:19:19.892Z,15.70
2019-01-25T14:22:33.643Z,15.70
2019-01-25T14:25:18.688Z,15.27
2019-01-25T14:28:03.397Z,14.30
2019-01-25T14:30:48.174Z,17.07
2019-01-25T14:33:32.695Z,16.57
2019-01-25T14:36:17.180Z,15.73
2019-01-25T14:39:02.019Z,14.50
2019-01-25T14:41:48.889Z,17.37
2019-01-25T14:44:33.732Z,16.90
2019-01-25T14:47:18.611Z,14.83
2019-01-25T14:50:03.138Z,15.77
2019-01-25T14:52:48.018Z,15.77
2019-01-25T14:55:32.887Z,15.20
2019-01-25T14:58:17.661Z,15.17
2019-01-25T15:01:02.763Z,15.53
2019-01-25T15:03:47.379Z,13.87
2019-01-25T15:06:32.231Z,14.03
2019-01-25T15:09:17.014Z,14.00
2019-01-25T15:12:02.151Z,14.60
2019-01-25T15:14:56.255Z,13.93
2019-01-25T15:17:49.648Z,11.77
2019-01-25T15:20:34.679Z,12.60
2019-01-25T15:23:19.120Z,10.83
2019-01-25T15:26:04.147Z,10.40
2019-01-25T15:28:49.170Z,7.77
2019-01-25T15:31:34.035Z,7.70
2019-01-25T15:34:18.787Z,7.03
2019-01-25T15:37:03.700Z,6.60
2019-01-25T15:39:48.520Z,6.93
2019-01-25T15:42:33.684Z,7.30
2019-01-25T15:45:27.378Z,7.00
2019-01-25T15:48:12.231Z,7.17
2019-01-25T15:50:56.906Z,7.80
2019-01-25T15:53:41.396Z,6.97
2019-01-25T15:56:26.157Z,7.13
2019-01-25T15:59:11.220Z,7.03
2019-01-25T16:01:55.739Z,5.70
2019-01-25T16:04:40.347Z,5.70
2019-01-25T16:07:25.141Z,4.87
2019-01-25T16:10:09.826Z,4.80
2019-01-25T16:12:54.007Z,5.00
2019-01-25T16:15:48.026Z,5.87
2019-01-25T16:18:32.709Z,6.37
2019-01-25T16:21:17.867Z,6.47
2019-01-25T16:24:11.138Z,6.40
2019-01-25T16:26:55.872Z,6.73
2019-01-25T16:29:40.577Z,7.80
2019-01-25T16:32:25.168Z,5.83
2019-01-25T16:35:10.367Z,5.47
2019-01-25T16:37:55.091Z,7.67
2019-01-25T16:40:39.458Z,6.37
2019-01-25T16:43:32.539Z,5.80
2019-01-25T16:46:17.489Z,5.70
2019-01-25T16:49:02.167Z,5.70
2019-01-25T16:51:46.855Z,6.07
2019-01-25T16:54:31.259Z,6.37
2019-01-25T16:57:15.559Z,6.00
2019-01-25T17:00:11.639Z,6.57
2019-01-25T17:02:56.760Z,10.43
2019-01-25T17:05:41.559Z,9.10
2019-01-25T17:08:26.234Z,6.47
2019-01-25T17:11:11.571Z,6.53
2019-01-25T17:13:56.396Z,6.80
2019-01-25T17:16:40.678Z,8.97
2019-01-25T17:19:25.543Z,12.30
2019-01-25T17:22:09.944Z,14.97
2019-01-25T17:24:54.323Z,13.60
2019-01-25T17:27:47.737Z,12.70
2019-01-25T17:30:32.535Z,13.20
2019-01-25T17:33:16.863Z,12.57
2019-01-25T17:36:01.378Z,12.10
2019-01-25T17:39:00.730Z,12.73
2019-01-25T17:41:46.900Z,11.97
2019-01-25T17:44:32.138Z,11.67
2019-01-25T17:47:16.973Z,12.80
2019-01-25T17:50:01.728Z,13.23
2019-01-25T17:52:55.535Z,12.40
2019-01-25T17:55:40.263Z,11.33
2019-01-25T17:58:24.531Z,11.07
2019-01-25T18:01:09.240Z,11.43
2019-01-25T18:03:53.854Z,12.00
2019-01-25T18:06:47.827Z,12.13
2019-01-25T18:09:41.895Z,11.90
2019-01-25T18:12:35.822Z,11.33
2019-01-25T18:15:21.871Z,11.23
2019-01-25T18:18:07.233Z,10.73
2019-01-25T18:21:00.898Z,11.50
2019-01-25T18:23:45.476Z,10.27
2019-01-25T18:26:29.798Z,10.13
2019-01-25T18:29:14.331Z,10.30
2019-01-25T18:32:07.572Z,10.40
2019-01-25T18:34:52.329Z,10.70
2019-01-25T18:37:36.847Z,10.07
2019-01-25T18:40:21.398Z,9.40
2019-01-25T18:43:15.367Z,8.03
2019-01-25T18:46:09.043Z,8.90
2019-01-25T18:48:53.555Z,9.03
2019-01-25T18:51:38.322Z,8.80
2019-01-25T18:54:22.990Z,8.20
2019-01-25T18:57:07.725Z,8.10
2019-01-25T18:59:52.297Z,7.63
2019-01-25T19:02:37.223Z,8.23
2019-01-25T19:05:21.812Z,7.93
2019-01-25T19:08:06.259Z,7.50
2019-01-25T19:10:59.807Z,7.10
2019-01-25T19:13:44.403Z,8.13
2019-01-25T19:16:29.027Z,7.63
2019-01-25T19:19:13.755Z,6.20
2019-01-25T19:21:58.155Z,7.53
2019-01-25T19:24:51.387Z,7.27
2019-01-25T19:27:35.872Z,6.77
2019-01-25T19:30:20.769Z,7.33
2019-01-25T19:33:05.442Z,8.20
2019-01-25T19:35:50.186Z,8.20
2019-01-25T19:38:34.322Z,7.77
2019-01-25T19:41:27.933Z,7.40
2019-01-25T19:44:12.403Z,6.60
2019-01-25T19:46:57.026Z,7.50
2019-01-25T19:49:41.639Z,7.43
2019-01-25T19:52:26.591Z,7.00
2019-01-25T19:55:11.362Z,7.03
2019-01-25T19:57:55.653Z,7.20
2019-01-25T20:00:49.333Z,8.50
2019-01-25T20:03:33.698Z,9.13
2019-01-25T20:06:18.472Z,7.87
2019-01-25T20:09:02.902Z,6.87
2019-01-25T20:11:48.847Z,6.90
2019-01-25T20:14:42.458Z,6.90
2019-01-25T20:17:27.449Z,6.60
2019-01-25T20:20:12.251Z,6.27
2019-01-25T20:22:57.583Z,6.70
2019-01-25T20:25:50.882Z,6.40
2019-01-25T20:28:35.395Z,6.00
2019-01-25T20:31:20.587Z,6.43
2019-01-25T20:34:05.063Z,5.97
2019-01-25T20:36:49.960Z,6.90
2019-01-25T20:39:34.907Z,6.40
2019-01-25T20:42:19.015Z,7.50
2019-01-25T20:45:12.199Z,6.77
2019-01-25T20:47:57.133Z,6.70
2019-01-25T20:50:41.218Z,5.87
2019-01-25T20:53:25.951Z,6.20
2019-01-25T20:56:18.871Z,6.30
2019-01-25T20:59:03.431Z,5.77
2019-01-25T21:01:47.927Z,5.97
2019-01-25T21:04:41.033Z,6.00
2019-01-25T21:07:25.583Z,6.80
2019-01-25T21:10:10.083Z,6.40
2019-01-25T21:13:05.360Z,5.87
2019-01-25T21:15:59.104Z,5.63
2019-01-25T21:18:44.277Z,6.00
2019-01-25T21:21:53.939Z,5.30
2019-01-25T21:24:38.742Z,5.03
2019-01-25T21:27:22.964Z,5.27
2019-01-25T21:30:07.536Z,5.33
2019-01-25T21:33:01.059Z,4.70
2019-01-25T21:35:45.531Z,5.30
2019-01-25T21:38:30.240Z,4.83
2019-01-25T21:41:15.146Z,4.93
2019-01-25T21:43:59.778Z,4.97
2019-01-25T21:46:44.485Z,5.17
2019-01-25T21:49:29.287Z,5.43
2019-01-25T21:52:14.023Z,5.03
2019-01-25T21:54:59.355Z,5.33
2019-01-25T21:57:44.083Z,5.33
2019-01-25T22:00:28.523Z,5.67
2019-01-25T22:03:13.219Z,5.10
2019-01-25T22:05:57.533Z,5.30
2019-01-25T22:08:50.886Z,5.13
2019-01-25T22:11:35.821Z,5.67
2019-01-25T22:14:20.069Z,5.77
2019-01-25T22:17:04.686Z,5.50
2019-01-25T22:19:49.723Z,5.20
2019-01-25T22:22:34.755Z,5.03
2019-01-25T22:25:19.491Z,5.40
2019-01-25T22:28:04.328Z,5.43
2019-01-25T22:30:49.175Z,5.53
2019-01-25T22:33:33.971Z,5.00
2019-01-25T22:36:18.320Z,5.30
2019-01-25T22:39:04.023Z,5.07
2019-01-25T22:41:50.307Z,5.40
2019-01-25T22:44:34.687Z,5.10
2019-01-25T22:47:20.398Z,5.00
2019-01-25T22:50:13.923Z,5.20
2019-01-25T22:52:58.037Z,4.90
2019-01-25T22:55:42.726Z,4.83
2019-01-25T22:58:28.606Z,5.07
2019-01-25T23:01:13.774Z,4.90
2019-01-25T23:03:58.911Z,5.63
2019-01-25T23:06:43.119Z,5.30
2019-01-25T23:09:36.959Z,5.20
2019-01-25T23:12:21.804Z,5.37
2019-01-25T23:15:06.407Z,5.70
2019-01-25T23:17:51.338Z,5.33
2019-01-25T23:20:36.147Z,5.90
2019-01-25T23:23:20.985Z,5.90
2019-01-25T23:26:05.355Z,5.33
2019-01-25T23:28:49.955Z,5.10
2019-01-25T23:31:34.755Z,5.40
2019-01-25T23:34:19.084Z,6.00
2019-01-25T23:37:04.752Z,5.30
2019-01-25T23:39:48.948Z,5.37
2019-01-25T23:42:33.771Z,5.57
2019-01-25T23:45:18.519Z,5.53
2019-01-25T23:48:03.151Z,4.90
2019-01-25T23:50:56.334Z,5.40
2019-01-25T23:53:40.839Z,4.90
2019-01-25T23:56:25.202Z,5.20
2019-01-25T23:59:18.746Z,5.23
